Time;durP1;ratioP1;P1;durP2;ratioP2;P2;SDS_P1;SDS_P2;PMS_P1;PMS_P2;Temp;Humidity;BMP_temperature;BMP_pressure;BME280_temperature;BME280_humidity;BME280_pressure;Samples;Min_cycle;Max_cycle;Signal;HPM_P1;HPM_P2
2022/07/18 00:00:06;;;;;;;10.03;3.60;;;20.90;12.80;;;;;;5015509;28;20204;-87
2022/07/18 00:02:32;;;;;;;7.13;2.97;;;20.80;13.00;;;;;;5013674;28;20196;-86
2022/07/18 00:04:57;;;;;;;8.40;2.70;;;20.70;13.20;;;;;;5018851;28;20448;-87
2022/07/18 00:07:23;;;;;;;7.60;3.07;;;20.70;13.60;;;;;;5019639;28;20185;-85
2022/07/18 00:09:49;;;;;;;6.70;2.90;;;20.70;13.80;;;;;;5018338;28;20299;-85
2022/07/18 00:12:14;;;;;;;9.23;3.80;;;20.70;14.60;;;;;;5017344;28;20184;-84
2022/07/18 00:14:40;;;;;;;8.57;3.10;;;20.60;14.80;;;;;;5017193;28;20195;-84
2022/07/18 00:17:06;;;;;;;12.73;3.07;;;20.60;15.10;;;;;;5015801;28;20186;-84
2022/07/18 00:19:32;;;;;;;10.37;3.07;;;20.60;15.60;;;;;;5013523;28;20331;-84
2022/07/18 00:21:57;;;;;;;7.00;2.83;;;20.60;15.80;;;;;;5014351;28;20462;-87
2022/07/18 00:24:23;;;;;;;7.83;2.67;;;20.60;16.20;;;;;;5013348;28;20184;-85
2022/07/18 00:26:49;;;;;;;9.50;2.93;;;20.60;16.50;;;;;;5012006;28;20308;-84
2022/07/18 00:29:14;;;;;;;6.77;2.90;;;20.50;17.40;;;;;;5014154;28;20216;-84
2022/07/18 00:31:40;;;;;;;8.07;2.70;;;20.50;17.80;;;;;;5012444;28;20346;-83
2022/07/18 00:34:05;;;;;;;7.10;2.60;;;20.40;18.20;;;;;;5014280;28;20193;-85
2022/07/18 00:36:31;;;;;;;6.97;2.53;;;20.40;18.60;;;;;;5010089;28;22136;-84
2022/07/18 00:38:58;;;;;;;10.63;2.97;;;20.40;18.90;;;;;;5015021;28;20821;-84
2022/07/18 00:41:24;;;;;;;10.40;2.90;;;20.30;19.00;;;;;;5013133;28;20227;-84
2022/07/18 00:43:50;;;;;;;8.10;2.73;;;20.30;19.90;;;;;;5014027;28;20438;-84
2022/07/18 00:46:19;;;;;;;9.50;3.00;;;20.30;20.20;;;;;;5012752;28;20633;-85
2022/07/18 00:48:45;;;;;;;17.77;3.10;;;20.30;20.70;;;;;;5012532;28;20605;-84
2022/07/18 00:51:11;;;;;;;3.40;2.60;;;20.20;21.10;;;;;;5015107;28;20516;-83
2022/07/18 00:53:36;;;;;;;11.43;3.10;;;20.10;21.10;;;;;;5011993;28;20195;-83
2022/07/18 00:56:04;;;;;;;11.17;3.10;;;20.10;21.90;;;;;;5013037;28;20194;-84
2022/07/18 00:58:30;;;;;;;6.77;2.63;;;20.10;23.00;;;;;;5011428;28;20194;-84
2022/07/18 01:03:41;;;;;;;5.43;1.93;;;20.00;22.60;;;;;;5011417;28;20447;-84
2022/07/18 01:06:07;;;;;;;3.20;2.30;;;20.00;22.80;;;;;;5011246;28;20435;-84
2022/07/18 01:08:32;;;;;;;5.33;2.63;;;20.00;23.70;;;;;;5009405;28;20247;-83
2022/07/18 01:10:58;;;;;;;8.40;2.17;;;20.00;24.50;;;;;;5014137;28;20496;-84
2022/07/18 01:13:24;;;;;;;6.53;2.50;;;20.00;25.60;;;;;;5013272;28;20238;-84
2022/07/18 01:15:49;;;;;;;4.43;2.50;;;20.00;24.80;;;;;;5010209;28;20210;-84
2022/07/18 01:18:15;;;;;;;6.50;2.40;;;20.00;25.80;;;;;;5012330;28;20741;-85
2022/07/18 01:20:40;;;;;;;4.13;1.97;;;20.00;27.10;;;;;;5012470;28;20677;-84
2022/07/18 01:23:06;;;;;;;5.73;2.10;;;19.90;26.40;;;;;;5014548;28;20178;-84
2022/07/18 01:25:32;;;;;;;6.07;2.27;;;19.90;26.60;;;;;;5012109;28;20191;-84
2022/07/18 01:27:57;;;;;;;7.00;2.33;;;19.80;38.50;;;;;;5012323;28;20192;-85
2022/07/18 01:30:24;;;;;;;11.87;2.50;;;19.80;27.10;;;;;;5012770;28;20229;-84
2022/07/18 01:32:58;;;;;;;8.10;2.80;;;19.80;27.30;;;;;;5014474;28;20228;-84
2022/07/18 01:35:25;;;;;;;8.17;2.60;;;19.70;28.40;;;;;;5008729;28;20815;-84
2022/07/18 01:37:52;;;;;;;7.63;2.80;;;19.70;29.10;;;;;;5012428;28;20430;-85
2022/07/18 01:40:18;;;;;;;5.83;2.17;;;19.70;29.10;;;;;;5012595;28;20462;-87
2022/07/18 01:42:44;;;;;;;5.40;2.40;;;19.60;29.60;;;;;;5013202;28;20438;-84
2022/07/18 01:45:09;;;;;;;7.10;2.57;;;19.60;42.30;;;;;;5012466;28;20189;-83
2022/07/18 01:47:35;;;;;;;9.33;2.53;;;19.50;29.90;;;;;;5011014;28;20287;-85
2022/07/18 01:50:01;;;;;;;5.83;2.90;;;19.50;31.20;;;;;;5012030;28;20491;-86
2022/07/18 01:52:26;;;;;;;8.83;2.30;;;19.50;32.10;;;;;;5010790;28;20221;-85
2022/07/18 01:54:52;;;;;;;7.03;2.40;;;19.40;32.40;;;;;;5012616;28;20220;-86
2022/07/18 01:57:17;;;;;;;4.33;2.13;;;19.40;32.90;;;;;;5009381;28;20599;-83
2022/07/18 01:59:43;;;;;;;6.40;2.47;;;19.40;34.30;;;;;;5010355;28;20686;-84
2022/07/18 02:02:09;;;;;;;7.90;2.47;;;19.40;34.20;;;;;;5010439;28;20179;-83
2022/07/18 02:07:18;;;;;;;6.37;2.73;;;19.30;36.50;;;;;;5008170;28;20241;-84
2022/07/18 02:09:44;;;;;;;5.10;2.30;;;19.30;36.50;;;;;;5010851;28;20472;-84
2022/07/18 02:12:09;;;;;;;6.47;2.30;;;19.30;37.60;;;;;;5010454;28;20191;-84
2022/07/18 02:14:35;;;;;;;6.47;3.40;;;19.20;37.90;;;;;;5011160;28;20190;-82
2022/07/18 02:17:00;;;;;;;8.67;2.40;;;19.20;38.50;;;;;;5008438;28;20184;-83
2022/07/18 02:19:26;;;;;;;9.90;2.70;;;19.20;39.30;;;;;;5009188;28;20206;-83
2022/07/18 02:21:51;;;;;;;8.50;2.47;;;19.10;52.30;;;;;;5010973;28;20218;-82
2022/07/18 02:24:17;;;;;;;5.40;2.60;;;19.10;40.70;;;;;;5012289;28;20192;-84
2022/07/18 02:26:43;;;;;;;9.30;2.63;;;19.10;42.20;;;;;;5010373;28;20189;-83
2022/07/18 02:29:08;;;;;;;7.20;2.90;;;19.00;42.40;;;;;;5010581;28;20330;-84
2022/07/18 02:31:34;;;;;;;6.17;2.83;;;19.00;43.10;;;;;;5011309;28;20183;-85
2022/07/18 02:33:59;;;;;;;9.40;3.30;;;19.00;42.80;;;;;;5011074;28;20213;-84
2022/07/18 02:36:25;;;;;;;4.53;2.30;;;19.00;44.30;;;;;;5008125;28;20192;-85
2022/07/18 02:38:50;;;;;;;7.83;2.63;;;18.90;44.10;;;;;;5011402;28;20207;-84
2022/07/18 02:41:16;;;;;;;12.40;3.40;;;18.80;44.70;;;;;;5011950;28;20191;-83
2022/07/18 02:43:41;;;;;;;9.53;2.63;;;18.80;45.00;;;;;;5009135;28;20661;-83
2022/07/18 02:46:07;;;;;;;9.53;3.07;;;18.70;45.70;;;;;;5010295;28;20208;-84
2022/07/18 02:48:32;;;;;;;7.70;2.47;;;18.80;46.00;;;;;;5008631;28;20211;-83
2022/07/18 02:50:58;;;;;;;6.20;2.70;;;18.70;46.80;;;;;;5009615;28;20186;-83
2022/07/18 02:53:23;;;;;;;7.63;2.47;;;18.70;47.10;;;;;;5011283;28;20193;-84
2022/07/18 02:55:50;;;;;;;8.97;2.67;;;18.70;48.00;;;;;;5009947;28;20187;-84
2022/07/18 02:58:16;;;;;;;10.33;2.97;;;18.70;48.30;;;;;;5010442;28;20234;-84
2022/07/18 03:00:42;;;;;;;22.13;3.80;;;18.60;49.90;;;;;;5010693;28;20459;-84
2022/07/18 03:03:07;;;;;;;14.03;3.50;;;18.60;50.40;;;;;;5011438;28;20449;-85
2022/07/18 03:05:33;;;;;;;15.20;3.63;;;18.50;50.50;;;;;;5009325;28;20798;-84
2022/07/18 03:07:59;;;;;;;15.87;5.37;;;18.50;51.50;;;;;;5011122;28;20191;-84
2022/07/18 03:10:24;;;;;;;24.07;4.63;;;18.40;51.90;;;;;;5011952;28;20231;-84
2022/07/18 03:12:50;;;;;;;26.87;4.20;;;18.30;53.30;;;;;;5013746;28;20184;-84
2022/07/18 03:15:15;;;;;;;20.23;4.40;;;18.30;53.80;;;;;;5012601;28;20680;-84
2022/07/18 03:17:41;;;;;;;16.67;4.33;;;18.20;54.10;;;;;;5008757;28;20663;-84
2022/07/18 03:20:07;;;;;;;23.20;4.00;;;18.20;54.70;;;;;;5010848;28;20208;-84
2022/07/18 03:22:33;;;;;;;16.53;5.47;;;18.20;55.80;;;;;;5008829;28;20246;-84
2022/07/18 03:24:59;;;;;;;20.73;3.80;;;18.20;57.20;;;;;;5009770;28;20814;-83
2022/07/18 03:27:24;;;;;;;26.93;4.23;;;18.20;56.80;;;;;;5010484;28;20441;-84
2022/07/18 03:29:50;;;;;;;7.73;3.50;;;18.30;57.20;;;;;;5010768;28;20234;-83
2022/07/18 03:32:15;;;;;;;13.13;3.40;;;18.20;58.10;;;;;;5010154;28;20183;-83
2022/07/18 03:34:41;;;;;;;21.73;4.70;;;18.30;58.90;;;;;;5010279;28;21931;-83
2022/07/18 03:37:06;;;;;;;13.67;4.20;;;18.30;59.00;;;;;;5007848;28;20778;-84
2022/07/18 03:39:32;;;;;;;14.20;2.93;;;18.30;59.50;;;;;;5011116;28;20682;-85
2022/07/18 03:41:57;;;;;;;9.37;3.10;;;18.20;59.70;;;;;;5013959;28;20225;-86
2022/07/18 03:44:23;;;;;;;16.60;3.70;;;18.20;59.70;;;;;;5013603;28;20188;-85
2022/07/18 03:46:51;;;;;;;15.07;3.07;;;18.20;61.00;;;;;;5010945;28;20209;-85
2022/07/18 03:49:17;;;;;;;11.93;3.30;;;18.20;61.60;;;;;;5013143;28;20298;-84
2022/07/18 03:51:42;;;;;;;15.50;3.43;;;18.20;64.80;;;;;;5013045;28;21239;-84
2022/07/18 03:54:09;;;;;;;17.23;4.27;;;18.20;64.30;;;;;;5012742;28;20265;-81
2022/07/18 03:56:35;;;;;;;16.53;4.33;;;18.20;64.70;;;;;;5010596;28;20633;-83
2022/07/18 03:59:01;;;;;;;20.50;3.43;;;18.20;66.30;;;;;;5013785;28;20890;-83
2022/07/18 04:01:26;;;;;;;9.63;2.47;;;18.20;66.80;;;;;;5011311;28;20439;-83
2022/07/18 04:03:52;;;;;;;8.50;3.20;;;18.20;67.00;;;;;;5011227;28;20183;-84
2022/07/18 04:06:17;;;;;;;6.43;3.40;;;18.20;66.50;;;;;;5011599;28;20198;-84
2022/07/18 04:08:43;;;;;;;9.23;3.17;;;18.20;85.00;;;;;;5012325;28;20245;-84
2022/07/18 04:11:08;;;;;;;11.33;3.43;;;18.20;67.50;;;;;;5013704;28;20229;-85
2022/07/18 04:13:34;;;;;;;8.80;3.37;;;18.20;68.50;;;;;;5013694;28;20249;-84
2022/07/18 04:15:59;;;;;;;5.13;3.67;;;18.30;70.10;;;;;;5013358;28;20183;-84
2022/07/18 04:18:25;;;;;;;8.87;3.10;;;18.40;71.00;;;;;;5013504;28;20183;-85
2022/07/18 04:20:50;;;;;;;11.73;3.53;;;18.40;71.70;;;;;;5014893;28;20182;-84
2022/07/18 04:23:18;;;;;;;8.20;3.77;;;18.50;71.60;;;;;;5012323;28;20179;-84
2022/07/18 04:25:44;;;;;;;4.13;3.10;;;18.50;73.10;;;;;;5013424;28;20679;-85
2022/07/18 04:28:11;;;;;;;8.93;3.40;;;18.60;72.40;;;;;;5013461;28;20429;-84
2022/07/18 04:30:38;;;;;;;8.07;3.60;;;18.50;71.80;;;;;;5011128;28;20212;-82
2022/07/18 04:33:06;;;;;;;6.43;3.30;;;18.50;72.50;;;;;;5014057;28;21013;-84
2022/07/18 04:35:32;;;;;;;8.90;3.63;;;18.50;70.60;;;;;;5009984;28;20449;-83
2022/07/18 04:37:58;;;;;;;7.60;3.03;;;18.60;71.40;;;;;;5012349;28;20466;-85
2022/07/18 04:40:24;;;;;;;6.97;3.97;;;18.70;70.90;;;;;;5013429;28;20556;-83
2022/07/18 04:42:49;;;;;;;8.23;3.20;;;18.70;70.40;;;;;;5006177;28;20192;-83
2022/07/18 04:45:15;;;;;;;8.40;3.43;;;18.80;71.20;;;;;;5017083;28;20191;-84
2022/07/18 04:47:41;;;;;;;11.07;3.50;;;18.90;71.10;;;;;;5011849;28;20179;-84
2022/07/18 04:50:07;;;;;;;10.03;4.20;;;19.00;73.50;;;;;;5012170;28;21020;-85
2022/07/18 04:52:41;;;;;;;8.27;3.57;;;19.00;72.70;;;;;;5013098;28;20179;-84
2022/07/18 04:55:08;;;;;;;8.20;3.40;;;19.00;71.90;;;;;;5014382;28;20459;-83
2022/07/18 04:57:34;;;;;;;6.17;4.30;;;19.20;72.30;;;;;;5008642;28;20434;-84
2022/07/18 05:00:04;;;;;;;6.83;3.87;;;19.10;71.90;;;;;;5011807;28;20832;-84
2022/07/18 05:02:29;;;;;;;5.80;3.03;;;19.20;72.70;;;;;;5008629;28;20651;-85
2022/07/18 05:04:55;;;;;;;8.27;2.90;;;19.20;73.00;;;;;;5012665;28;20485;-85
2022/07/18 05:07:21;;;;;;;6.10;3.90;;;19.30;72.80;;;;;;5012860;28;20191;-84
2022/07/18 05:09:46;;;;;;;7.63;4.00;;;19.40;74.30;;;;;;5010838;28;20302;-84
2022/07/18 05:12:12;;;;;;;6.83;3.13;;;19.50;73.50;;;;;;5015740;28;20212;-86
2022/07/18 05:14:37;;;;;;;7.13;2.70;;;19.60;73.70;;;;;;5015891;28;20188;-86
2022/07/18 05:17:03;;;;;;;8.97;3.17;;;19.70;73.40;;;;;;5015631;28;20214;-86
2022/07/18 05:19:28;;;;;;;5.57;2.93;;;19.80;72.60;;;;;;5015062;28;20243;-86
2022/07/18 05:21:54;;;;;;;7.23;3.33;;;20.00;74.30;;;;;;5016628;28;20196;-86
2022/07/18 05:24:20;;;;;;;9.20;3.30;;;20.20;72.60;;;;;;5016026;28;20611;-85
2022/07/18 05:26:45;;;;;;;4.50;2.77;;;20.30;73.20;;;;;;5014277;28;20182;-86
2022/07/18 05:29:12;;;;;;;6.50;3.77;;;20.50;73.50;;;;;;5017135;28;20254;-86
2022/07/18 05:31:39;;;;;;;7.40;3.70;;;20.70;72.80;;;;;;5015768;28;20273;-86
2022/07/18 05:34:05;;;;;;;9.80;3.80;;;20.80;73.80;;;;;;5016388;28;20499;-86
2022/07/18 05:36:31;;;;;;;6.00;3.00;;;21.00;72.60;;;;;;5011437;28;20432;-86
2022/07/18 05:38:56;;;;;;;7.80;3.10;;;21.10;74.20;;;;;;5011639;28;20224;-86
2022/07/18 05:41:22;;;;;;;9.97;3.30;;;21.30;72.70;;;;;;5010980;28;20190;-86
2022/07/18 05:43:47;;;;;;;7.13;2.97;;;21.50;73.00;;;;;;5010703;28;20191;-84
2022/07/18 05:46:13;;;;;;;15.60;3.70;;;21.70;70.80;;;;;;5008545;28;20183;-86
2022/07/18 05:48:39;;;;;;;5.27;2.67;;;21.80;71.10;;;;;;5009026;28;20259;-86
2022/07/18 05:51:06;;;;;;;5.53;3.10;;;22.00;71.10;;;;;;5009420;28;20181;-84
2022/07/18 05:53:32;;;;;;;7.17;3.60;;;22.20;71.20;;;;;;5011051;28;20179;-86
2022/07/18 05:55:57;;;;;;;5.00;2.77;;;22.50;72.20;;;;;;5010188;28;20498;-86
2022/07/18 05:58:23;;;;;;;9.67;2.97;;;22.70;71.90;;;;;;5013452;28;20224;-87
2022/07/18 06:00:48;;;;;;;15.50;3.30;;;22.80;70.50;;;;;;5007717;28;20214;-88
2022/07/18 06:03:14;;;;;;;8.93;2.87;;;23.20;70.20;;;;;;5009504;28;20622;-88
2022/07/18 06:05:40;;;;;;;5.97;3.00;;;23.60;71.60;;;;;;5008047;28;20183;-87
2022/07/18 06:08:06;;;;;;;10.07;2.40;;;24.80;75.30;;;;;;5010561;28;20185;-87
2022/07/18 06:10:32;;;;;;;8.07;2.33;;;27.70;83.50;;;;;;5006810;28;20215;-87
2022/07/18 06:12:57;;;;;;;14.77;2.60;;;31.30;89.60;;;;;;5009465;28;20449;-87
2022/07/18 06:15:23;;;;;;;15.93;3.40;;;34.90;99.90;;;;;;5007607;28;20214;-85
2022/07/18 06:17:50;;;;;;;20.67;3.10;;;37.80;91.10;;;;;;5011455;28;20204;-88
2022/07/18 06:20:16;;;;;;;15.10;3.23;;;39.10;80.40;;;;;;5006614;28;20469;-84
2022/07/18 06:22:41;;;;;;;11.70;2.30;;;40.70;70.70;;;;;;5009676;28;20290;-85
2022/07/18 06:25:07;;;;;;;7.70;2.00;;;41.10;57.60;;;;;;5008338;28;20362;-86
2022/07/18 06:27:33;;;;;;;11.70;2.13;;;40.50;48.90;;;;;;5009045;28;20203;-85
2022/07/18 06:29:59;;;;;;;8.53;2.90;;;41.20;45.40;;;;;;5007355;28;20465;-85
2022/07/18 06:32:25;;;;;;;14.20;2.20;;;43.50;43.60;;;;;;5007216;28;20193;-85
2022/07/18 06:34:50;;;;;;;5.40;1.93;;;45.40;39.60;;;;;;5008493;28;20203;-86
2022/07/18 06:37:16;;;;;;;3.97;2.10;;;47.00;35.70;;;;;;5009037;28;20544;-87
2022/07/18 06:39:42;;;;;;;2.43;1.67;;;48.70;32.60;;;;;;5006183;28;20218;-85
2022/07/18 06:42:07;;;;;;;8.07;2.03;;;50.00;29.30;;;;;;5008107;28;20232;-86
2022/07/18 06:44:33;;;;;;;6.60;2.10;;;50.50;25.10;;;;;;5010290;28;20677;-86
2022/07/18 06:46:59;;;;;;;9.50;2.20;;;51.30;21.20;;;;;;5013189;28;20178;-87
2022/07/18 06:49:25;;;;;;;7.50;2.70;;;51.80;18.30;;;;;;5009666;28;20269;-86
2022/07/18 06:51:51;;;;;;;9.40;2.30;;;52.40;15.00;;;;;;5008151;28;20206;-86
2022/07/18 06:54:18;;;;;;;3.72;2.10;;;53.80;13.80;;;;;;5008152;28;20736;-86
2022/07/18 06:56:44;;;;;;;2.25;1.85;;;54.90;11.50;;;;;;5007551;28;20268;-86
2022/07/18 06:59:09;;;;;;;5.05;2.20;;;55.90;9.80;;;;;;5011849;28;20239;-86
2022/07/18 07:01:35;;;;;;;4.28;1.40;;;56.70;7.40;;;;;;5009482;28;20186;-86
2022/07/18 07:04:00;;;;;;;5.88;1.92;;;58.10;6.60;;;;;;5011390;28;20194;-86
2022/07/18 07:06:26;;;;;;;2.55;1.67;;;57.70;13.40;;;;;;5010144;28;20240;-86
2022/07/18 07:08:52;;;;;;;5.90;1.80;;;59.30;14.00;;;;;;5008991;28;20229;-87
2022/07/18 07:11:17;;;;;;;5.03;1.85;;;60.30;4.00;;;;;;5009453;28;20202;-86
2022/07/18 07:13:43;;;;;;;4.00;1.60;;;60.70;2.80;;;;;;5005425;28;20190;-86
2022/07/18 07:16:09;;;;;;;3.95;1.60;;;60.60;1.60;;;;;;5009175;28;20646;-86
2022/07/18 07:18:34;;;;;;;3.17;1.52;;;60.30;1.00;;;;;;5007230;28;20240;-86
2022/07/18 07:21:00;;;;;;;8.48;1.88;;;59.50;1.00;;;;;;5009620;28;20186;-86
2022/07/18 07:23:26;;;;;;;7.18;2.13;;;59.00;1.00;;;;;;5005540;28;20190;-86
2022/07/18 07:25:51;;;;;;;6.97;1.60;;;59.10;1.00;;;;;;5008489;28;20190;-86
2022/07/18 07:28:18;;;;;;;5.82;2.03;;;58.90;1.00;;;;;;5008591;28;20194;-86
2022/07/18 07:30:44;;;;;;;3.85;1.85;;;59.20;1.00;;;;;;5005514;28;20205;-87
2022/07/18 07:33:09;;;;;;;3.67;1.50;;;59.20;1.00;;;;;;5005748;28;20182;-87
2022/07/18 07:35:35;;;;;;;3.70;1.67;;;58.60;1.00;;;;;;5007880;28;20193;-85
2022/07/18 07:38:01;;;;;;;2.05;1.27;;;58.20;1.00;;;;;;5007711;28;20179;-86
2022/07/18 07:40:28;;;;;;;4.40;1.70;;;58.20;1.00;;;;;;5009381;28;20352;-86
2022/07/18 07:43:07;;;;;;;2.72;1.55;;;58.50;1.00;;;;;;5006824;28;20279;-86
2022/07/18 07:45:34;;;;;;;4.95;1.48;;;58.60;1.00;;;;;;5008057;28;20186;-87
2022/07/18 07:47:59;;;;;;;3.70;1.70;;;56.00;1.00;;;;;;5004892;28;20659;-86
2022/07/18 07:50:25;;;;;;;3.05;1.50;;;55.20;1.00;;;;;;5009445;28;20293;-87
2022/07/18 07:52:50;;;;;;;5.85;1.30;;;55.00;1.00;;;;;;5007006;28;20179;-86
2022/07/18 07:55:16;;;;;;;8.35;1.65;;;55.90;1.00;;;;;;5017972;28;20189;-86
2022/07/18 07:57:42;;;;;;;3.97;2.00;;;56.00;1.00;;;;;;5023333;28;20289;-86
2022/07/18 08:00:09;;;;;;;4.47;1.65;;;56.30;1.00;;;;;;5010236;28;20248;-87
2022/07/18 08:02:35;;;;;;;6.03;1.80;;;56.80;1.00;;;;;;4997232;28;20187;-87
2022/07/18 08:05:01;;;;;;;5.07;2.28;;;57.80;1.00;;;;;;5006175;28;20206;-87
2022/07/18 08:07:26;;;;;;;2.45;1.50;;;58.30;1.00;;;;;;5010196;28;20588;-87
2022/07/18 08:09:52;;;;;;;5.82;1.98;;;58.60;1.00;;;;;;5006388;28;20210;-87
2022/07/18 08:12:17;;;;;;;5.80;1.83;;;58.60;1.00;;;;;;5005046;28;20186;-88
2022/07/18 08:14:43;;;;;;;8.07;1.65;;;59.50;1.00;;;;;;5006594;28;20261;-86
2022/07/18 08:17:09;;;;;;;5.88;1.50;;;60.00;1.00;;;;;;5006756;28;20178;-87
2022/07/18 08:19:34;;;;;;;6.13;1.83;;;58.90;1.00;;;;;;5006625;28;22175;-86
2022/07/18 08:22:00;;;;;;;8.60;2.38;;;57.80;1.00;;;;;;5008000;28;20537;-85
2022/07/18 08:24:25;;;;;;;9.93;1.70;;;57.60;1.00;;;;;;5008908;28;20277;-85
2022/07/18 08:26:51;;;;;;;7.60;1.70;;;57.20;1.00;;;;;;5010901;28;20626;-85
2022/07/18 08:29:17;;;;;;;9.80;2.28;;;57.60;1.00;;;;;;5009528;28;20249;-84
2022/07/18 08:31:42;;;;;;;11.05;2.28;;;58.10;1.00;;;;;;5011097;28;20198;-86
2022/07/18 08:34:08;;;;;;;7.93;2.03;;;58.50;1.00;;;;;;5009198;28;20186;-85
2022/07/18 08:36:33;;;;;;;6.95;1.95;;;58.80;1.00;;;;;;5011027;28;20288;-86
2022/07/18 08:38:59;;;;;;;2.83;1.40;;;58.30;1.00;;;;;;5013924;28;20690;-84
2022/07/18 08:41:27;;;;;;;6.60;1.60;;;58.00;1.00;;;;;;5013418;28;20192;-84
2022/07/18 08:43:53;;;;;;;7.18;1.80;;;57.80;1.00;;;;;;5015222;28;20557;-84
2022/07/18 08:46:21;;;;;;;3.72;1.38;;;57.80;1.00;;;;;;5007729;28;20191;-85
2022/07/18 08:48:48;;;;;;;4.90;1.50;;;57.90;1.00;;;;;;5008240;28;20222;-84
2022/07/18 08:51:14;;;;;;;4.45;1.70;;;58.10;1.00;;;;;;5013847;28;20197;-84
2022/07/18 08:53:40;;;;;;;4.60;1.50;;;58.10;1.00;;;;;;5011194;28;20178;-84
2022/07/18 08:56:06;;;;;;;8.25;2.13;;;58.20;1.00;;;;;;5012561;28;20188;-84
2022/07/18 08:58:32;;;;;;;1.55;1.13;;;58.20;1.00;;;;;;5009340;28;20241;-84
2022/07/18 09:00:58;;;;;;;3.70;1.25;;;58.20;1.00;;;;;;5011022;28;20658;-84
2022/07/18 09:03:25;;;;;;;2.65;1.45;;;58.00;1.00;;;;;;5013957;28;20210;-84
2022/07/18 09:06:23;;;;;;;2.72;1.25;;;57.90;1.00;;;;;;5013795;28;20666;-84
2022/07/18 09:09:00;;;;;;;1.50;1.40;;;57.80;1.00;;;;;;4988235;28;20230;-84
2022/07/18 09:11:26;;;;;;;7.88;1.27;;;57.70;1.00;;;;;;5010231;28;20240;-84
2022/07/18 09:13:52;;;;;;;3.65;1.67;;;57.00;1.00;;;;;;5011137;28;20749;-83
2022/07/18 09:16:17;;;;;;;2.67;1.40;;;56.60;1.00;;;;;;5012229;28;20186;-85
2022/07/18 09:18:48;;;;;;;4.43;1.13;;;56.50;1.00;;;;;;5011836;28;20193;-84
2022/07/18 09:21:20;;;;;;;4.25;1.60;;;56.80;1.00;;;;;;5010991;28;20257;-84
2022/07/18 09:23:51;;;;;;;3.05;1.00;;;57.00;1.00;;;;;;5011816;28;20206;-84
2022/07/18 09:26:35;;;;;;;3.22;1.27;;;56.40;1.00;;;;;;5016666;28;20197;-85
2022/07/18 09:29:01;;;;;;;3.78;1.25;;;56.30;1.00;;;;;;5011054;28;20297;-85
2022/07/18 09:31:27;;;;;;;3.15;1.30;;;56.70;1.00;;;;;;5012451;28;20270;-84
2022/07/18 09:34:00;;;;;;;2.90;1.20;;;57.20;1.00;;;;;;5009298;28;20178;-84
2022/07/18 09:36:27;;;;;;;1.52;1.42;;;57.00;1.00;;;;;;5005258;28;20559;-84
2022/07/18 09:38:53;;;;;;;1.52;1.23;;;56.30;1.00;;;;;;5008246;28;20248;-84
2022/07/18 09:41:27;;;;;;;2.95;1.33;;;56.20;1.00;;;;;;5008447;28;20745;-85
2022/07/18 09:43:52;;;;;;;10.55;1.60;;;55.50;1.00;;;;;;5009657;28;20274;-84
2022/07/18 09:46:18;;;;;;;3.15;1.40;;;55.20;1.00;;;;;;5006889;28;20265;-86
2022/07/18 09:48:44;;;;;;;2.00;1.13;;;55.30;1.00;;;;;;5010187;28;20297;-84
2022/07/18 09:51:10;;;;;;;6.50;1.30;;;55.20;1.00;;;;;;5010423;28;20174;-85
2022/07/18 09:53:43;;;;;;;2.03;1.27;;;55.00;1.00;;;;;;5007842;28;20225;-84
2022/07/18 09:56:33;;;;;;;2.50;1.07;;;54.80;1.00;;;;;;5007566;28;20187;-85
2022/07/18 09:58:59;;;;;;;1.77;1.10;;;54.30;1.00;;;;;;5017703;28;20206;-84
2022/07/18 10:01:24;;;;;;;1.70;1.30;;;54.10;1.00;;;;;;5010442;28;20198;-84
2022/07/18 10:03:50;;;;;;;2.07;1.23;;;53.90;1.00;;;;;;5009253;28;20178;-85
2022/07/18 10:06:18;;;;;;;2.70;1.17;;;53.60;1.00;;;;;;5011750;28;20197;-86
2022/07/18 10:08:43;;;;;;;3.27;1.40;;;53.10;1.00;;;;;;5007461;28;20679;-84
2022/07/18 10:11:09;;;;;;;2.33;1.20;;;52.50;1.00;;;;;;5010592;28;20445;-84
2022/07/18 10:13:37;;;;;;;2.27;1.23;;;52.30;1.00;;;;;;5010842;28;20182;-84
2022/07/18 10:16:04;;;;;;;3.90;1.50;;;51.80;1.00;;;;;;5023832;28;20182;-84
2022/07/18 10:18:33;;;;;;;2.43;1.40;;;51.90;1.00;;;;;;5015212;28;20432;-84
2022/07/18 10:21:02;;;;;;;5.77;1.37;;;52.10;1.00;;;;;;5009631;28;20480;-84
2022/07/18 10:23:31;;;;;;;2.50;1.00;;;52.10;1.00;;;;;;5011706;28;20815;-84
2022/07/18 10:26:14;;;;;;;2.00;1.20;;;51.90;1.00;;;;;;5012867;28;20809;-84
2022/07/18 10:28:55;;;;;;;9.67;1.40;;;51.80;1.00;;;;;;5012243;28;20491;-85
2022/07/18 10:31:22;;;;;;;5.50;1.97;;;51.70;1.00;;;;;;5005470;28;20468;-85
2022/07/18 10:33:48;;;;;;;3.93;1.20;;;51.70;1.00;;;;;;5008117;28;20955;-84
2022/07/18 10:36:21;;;;;;;7.43;1.40;;;51.70;1.00;;;;;;5005352;28;20532;-86
2022/07/18 10:39:06;;;;;;;4.37;1.50;;;51.70;1.00;;;;;;5006505;28;20445;-85
2022/07/18 10:41:32;;;;;;;2.70;1.40;;;52.00;1.00;;;;;;5006878;28;20463;-85
2022/07/18 10:43:58;;;;;;;4.60;1.63;;;52.00;1.00;;;;;;5006636;28;20532;-85
2022/07/18 10:46:23;;;;;;;6.87;1.40;;;52.30;1.00;;;;;;5008432;28;20528;-85
2022/07/18 10:48:55;;;;;;;3.00;1.43;;;52.40;1.00;;;;;;5009738;28;20209;-85
2022/07/18 10:51:29;;;;;;;4.67;1.40;;;52.60;1.00;;;;;;5007208;28;20185;-84
2022/07/18 10:53:54;;;;;;;2.43;1.17;;;52.70;1.00;;;;;;5008522;28;20186;-85
2022/07/18 10:56:25;;;;;;;3.23;1.33;;;52.50;1.00;;;;;;5008716;28;20193;-85
2022/07/18 10:58:51;;;;;;;3.07;1.40;;;52.00;1.00;;;;;;5011913;28;20302;-84
2022/07/18 11:01:17;;;;;;;2.47;1.10;;;51.80;1.00;;;;;;5016295;28;20240;-85
2022/07/18 11:03:43;;;;;;;5.30;1.37;;;51.80;1.00;;;;;;5019048;28;20487;-84
2022/07/18 11:06:09;;;;;;;3.30;1.43;;;51.50;1.00;;;;;;5021426;28;20425;-86
2022/07/18 11:08:38;;;;;;;4.00;1.33;;;51.20;1.00;;;;;;5017125;28;20190;-85
2022/07/18 11:11:05;;;;;;;2.67;1.17;;;51.20;1.00;;;;;;5023567;28;20441;-84
2022/07/18 11:13:36;;;;;;;4.87;1.73;;;51.30;1.00;;;;;;5012878;28;20575;-84
2022/07/18 11:16:12;;;;;;;3.30;2.00;;;51.50;1.00;;;;;;5013759;28;20519;-84
2022/07/18 11:18:44;;;;;;;3.30;1.40;;;51.60;1.00;;;;;;5010917;28;20409;-84
2022/07/18 11:21:31;;;;;;;4.13;1.37;;;51.50;1.00;;;;;;5012396;28;20436;-84
2022/07/18 11:24:03;;;;;;;3.20;1.40;;;51.50;1.00;;;;;;5012359;28;20508;-84
2022/07/18 11:26:29;;;;;;;3.70;1.70;;;51.50;1.00;;;;;;5007580;28;20429;-84
2022/07/18 11:29:05;;;;;;;2.90;1.10;;;51.20;1.00;;;;;;5012521;28;20464;-84
2022/07/18 11:31:31;;;;;;;4.03;1.40;;;51.20;1.00;;;;;;5011256;28;20464;-84
2022/07/18 11:34:01;;;;;;;8.47;1.70;;;51.10;1.00;;;;;;5011624;28;20520;-84
2022/07/18 11:36:31;;;;;;;2.90;1.40;;;50.80;1.00;;;;;;5010799;28;20536;-84
2022/07/18 11:38:59;;;;;;;6.00;1.60;;;50.60;1.00;;;;;;5013384;28;20480;-84
2022/07/18 11:41:25;;;;;;;3.67;1.33;;;50.40;1.00;;;;;;5008947;28;20446;-85
2022/07/18 11:43:51;;;;;;;3.07;1.60;;;50.30;1.00;;;;;;5011403;28;20441;-86
2022/07/18 11:46:22;;;;;;;2.23;0.90;;;50.00;1.00;;;;;;5005127;28;20270;-86
2022/07/18 11:48:57;;;;;;;2.30;1.47;;;49.70;1.00;;;;;;5006180;28;20480;-86
2022/07/18 11:51:23;;;;;;;4.53;1.67;;;49.50;1.00;;;;;;5022177;28;20436;-85
2022/07/18 11:53:55;;;;;;;1.77;1.20;;;49.50;1.00;;;;;;4991453;28;20476;-84
2022/07/18 11:56:22;;;;;;;3.73;1.10;;;49.50;1.00;;;;;;5009327;28;20925;-85
2022/07/18 11:58:49;;;;;;;2.73;1.40;;;49.50;1.00;;;;;;5012561;28;20524;-84
2022/07/18 12:01:18;;;;;;;3.20;1.27;;;49.30;1.00;;;;;;5017249;28;20429;-83
2022/07/18 12:03:46;;;;;;;4.10;1.60;;;49.10;1.00;;;;;;5012532;28;20448;-86
2022/07/18 12:06:23;;;;;;;2.17;1.30;;;49.20;1.00;;;;;;5013999;28;20440;-84
2022/07/18 12:08:51;;;;;;;5.37;1.83;;;49.30;1.00;;;;;;5012306;28;20479;-84
2022/07/18 12:11:24;;;;;;;4.00;1.17;;;49.20;1.00;;;;;;5014020;28;20515;-84
2022/07/18 12:14:12;;;;;;;3.53;1.17;;;49.20;1.00;;;;;;5013441;28;20531;-86
2022/07/18 12:16:39;;;;;;;3.17;1.27;;;49.20;1.00;;;;;;5012324;28;20500;-84
2022/07/18 12:19:13;;;;;;;1.83;1.10;;;48.90;1.00;;;;;;5014476;28;20455;-89
2022/07/18 12:21:39;;;;;;;2.40;1.57;;;48.80;1.00;;;;;;5014955;28;20483;-85
2022/07/18 12:24:41;;;;;;;1.93;1.10;;;48.80;1.00;;;;;;5018846;28;20413;-84
2022/07/18 12:27:25;;;;;;;4.10;2.20;;;48.80;1.00;;;;;;5014690;28;20194;-84
2022/07/18 12:30:02;;;;;;;2.70;1.30;;;48.70;1.00;;;;;;5015818;28;20472;-84
2022/07/18 12:32:30;;;;;;;2.20;1.00;;;48.50;1.00;;;;;;5016391;28;20468;-84
2022/07/18 12:34:57;;;;;;;3.33;1.70;;;48.10;1.00;;;;;;5018982;28;20511;-85
2022/07/18 12:37:27;;;;;;;4.93;1.73;;;48.10;1.00;;;;;;5018193;28;20425;-84
2022/07/18 12:40:18;;;;;;;1.97;1.27;;;48.10;1.00;;;;;;5011963;28;20450;-84
2022/07/18 12:42:44;;;;;;;2.00;1.13;;;48.00;1.00;;;;;;5014437;28;20438;-83
2022/07/18 12:45:11;;;;;;;3.43;1.20;;;47.80;1.00;;;;;;5015133;28;20452;-84
2022/07/18 12:47:37;;;;;;;2.17;1.10;;;47.60;1.00;;;;;;5015270;28;20194;-84
2022/07/18 12:50:05;;;;;;;1.50;1.13;;;47.40;1.00;;;;;;5016206;28;20473;-84
2022/07/18 12:52:31;;;;;;;2.20;1.20;;;47.20;1.00;;;;;;5017291;28;20433;-84
2022/07/18 12:54:56;;;;;;;2.57;1.60;;;47.10;1.00;;;;;;5017776;28;20433;-84